sensor_id;sensor_type;location;lat;lon;timestamp;P1;durP1;ratioP1;P2;durP2;ratioP2
73557;SDS011;61829;53.286;10.434;2023-04-19T00:00:45;4.47;;;2.83;;
73557;SDS011;61829;53.286;10.434;2023-04-19T00:03:15;5.32;;;2.67;;
73557;SDS011;61829;53.286;10.434;2023-04-19T00:05:42;7.05;;;2.83;;
73557;SDS011;61829;53.286;10.434;2023-04-19T00:08:08;6.22;;;2.25;;
73557;SDS011;61829;53.286;10.434;2023-04-19T00:10:34;7.05;;;2.70;;
73557;SDS011;61829;53.286;10.434;2023-04-19T00:13:00;7.18;;;3.25;;
73557;SDS011;61829;53.286;10.434;2023-04-19T00:15:26;5.13;;;2.70;;
73557;SDS011;61829;53.286;10.434;2023-04-19T00:17:52;7.10;;;2.70;;
73557;SDS011;61829;53.286;10.434;2023-04-19T00:20:19;6.50;;;3.15;;
73557;SDS011;61829;53.286;10.434;2023-04-19T00:22:45;6.03;;;3.10;;
73557;SDS011;61829;53.286;10.434;2023-04-19T00:25:11;7.38;;;2.70;;
73557;SDS011;61829;53.286;10.434;2023-04-19T00:27:37;6.85;;;2.63;;
73557;SDS011;61829;53.286;10.434;2023-04-19T00:30:02;4.97;;;2.70;;
73557;SDS011;61829;53.286;10.434;2023-04-19T00:32:28;6.75;;;3.05;;
73557;SDS011;61829;53.286;10.434;2023-04-19T00:34:54;6.30;;;2.72;;
73557;SDS011;61829;53.286;10.434;2023-04-19T00:37:20;5.05;;;2.78;;
73557;SDS011;61829;53.286;10.434;2023-04-19T00:39:46;4.82;;;2.60;;
73557;SDS011;61829;53.286;10.434;2023-04-19T00:42:14;8.13;;;2.95;;
73557;SDS011;61829;53.286;10.434;2023-04-19T00:44:41;3.85;;;2.50;;
73557;SDS011;61829;53.286;10.434;2023-04-19T00:47:06;5.18;;;2.67;;
73557;SDS011;61829;53.286;10.434;2023-04-19T00:49:33;5.57;;;3.17;;
73557;SDS011;61829;53.286;10.434;2023-04-19T00:51:58;5.10;;;3.10;;
73557;SDS011;61829;53.286;10.434;2023-04-19T00:54:27;4.63;;;2.40;;
73557;SDS011;61829;53.286;10.434;2023-04-19T00:56:54;5.90;;;2.97;;
73557;SDS011;61829;53.286;10.434;2023-04-19T01:01:47;5.53;;;3.10;;
73557;SDS011;61829;53.286;10.434;2023-04-19T01:04:12;5.93;;;3.28;;
73557;SDS011;61829;53.286;10.434;2023-04-19T01:09:06;6.13;;;3.22;;
73557;SDS011;61829;53.286;10.434;2023-04-19T01:11:33;6.82;;;3.40;;
73557;SDS011;61829;53.286;10.434;2023-04-19T01:13:59;5.32;;;2.70;;
73557;SDS011;61829;53.286;10.434;2023-04-19T01:16:25;6.80;;;3.30;;
73557;SDS011;61829;53.286;10.434;2023-04-19T01:18:52;5.68;;;2.92;;
73557;SDS011;61829;53.286;10.434;2023-04-19T01:21:18;5.45;;;3.22;;
73557;SDS011;61829;53.286;10.434;2023-04-19T01:23:44;5.25;;;2.83;;
73557;SDS011;61829;53.286;10.434;2023-04-19T01:26:12;5.68;;;2.92;;
73557;SDS011;61829;53.286;10.434;2023-04-19T01:28:38;7.22;;;2.90;;
73557;SDS011;61829;53.286;10.434;2023-04-19T01:31:04;7.28;;;3.13;;
73557;SDS011;61829;53.286;10.434;2023-04-19T01:33:31;7.10;;;2.90;;
73557;SDS011;61829;53.286;10.434;2023-04-19T01:35:56;6.70;;;3.10;;
73557;SDS011;61829;53.286;10.434;2023-04-19T01:38:22;5.38;;;2.88;;
73557;SDS011;61829;53.286;10.434;2023-04-19T01:40:48;6.82;;;3.00;;
73557;SDS011;61829;53.286;10.434;2023-04-19T01:43:15;7.20;;;3.30;;
73557;SDS011;61829;53.286;10.434;2023-04-19T01:45:42;5.50;;;3.72;;
73557;SDS011;61829;53.286;10.434;2023-04-19T01:48:08;7.20;;;2.58;;
73557;SDS011;61829;53.286;10.434;2023-04-19T01:50:34;5.38;;;2.70;;
73557;SDS011;61829;53.286;10.434;2023-04-19T01:53:00;6.30;;;2.92;;
73557;SDS011;61829;53.286;10.434;2023-04-19T01:55:26;5.88;;;2.70;;
73557;SDS011;61829;53.286;10.434;2023-04-19T01:57:52;5.75;;;2.90;;
73557;SDS011;61829;53.286;10.434;2023-04-19T02:00:19;4.82;;;2.55;;
73557;SDS011;61829;53.286;10.434;2023-04-19T02:02:45;5.45;;;3.03;;
73557;SDS011;61829;53.286;10.434;2023-04-19T02:05:10;4.82;;;2.47;;
73557;SDS011;61829;53.286;10.434;2023-04-19T02:07:36;4.18;;;2.47;;
73557;SDS011;61829;53.286;10.434;2023-04-19T02:10:02;4.47;;;2.50;;
73557;SDS011;61829;53.286;10.434;2023-04-19T02:12:30;6.32;;;2.53;;
73557;SDS011;61829;53.286;10.434;2023-04-19T02:14:57;8.98;;;2.85;;
73557;SDS011;61829;53.286;10.434;2023-04-19T02:17:26;6.45;;;2.63;;
73557;SDS011;61829;53.286;10.434;2023-04-19T02:19:52;4.60;;;2.85;;
73557;SDS011;61829;53.286;10.434;2023-04-19T02:22:18;6.22;;;3.42;;
73557;SDS011;61829;53.286;10.434;2023-04-19T02:24:44;6.68;;;2.92;;
73557;SDS011;61829;53.286;10.434;2023-04-19T02:27:12;5.55;;;2.80;;
73557;SDS011;61829;53.286;10.434;2023-04-19T02:29:38;4.25;;;2.50;;
73557;SDS011;61829;53.286;10.434;2023-04-19T02:32:04;5.85;;;2.53;;
73557;SDS011;61829;53.286;10.434;2023-04-19T02:34:33;7.70;;;2.70;;
73557;SDS011;61829;53.286;10.434;2023-04-19T02:36:59;4.55;;;2.30;;
73557;SDS011;61829;53.286;10.434;2023-04-19T02:39:25;6.55;;;2.63;;
73557;SDS011;61829;53.286;10.434;2023-04-19T02:41:52;7.93;;;2.95;;
73557;SDS011;61829;53.286;10.434;2023-04-19T02:44:17;4.72;;;2.60;;
73557;SDS011;61829;53.286;10.434;2023-04-19T02:46:50;4.82;;;2.50;;
73557;SDS011;61829;53.286;10.434;2023-04-19T02:51:43;6.65;;;2.50;;
73557;SDS011;61829;53.286;10.434;2023-04-19T02:54:12;7.30;;;2.20;;
73557;SDS011;61829;53.286;10.434;2023-04-19T02:56:39;4.38;;;2.28;;
73557;SDS011;61829;53.286;10.434;2023-04-19T03:02:14;6.20;;;2.60;;
73557;SDS011;61829;53.286;10.434;2023-04-19T03:04:40;4.65;;;2.20;;
73557;SDS011;61829;53.286;10.434;2023-04-19T03:07:08;4.78;;;2.20;;
73557;SDS011;61829;53.286;10.434;2023-04-19T03:09:34;4.88;;;2.40;;
73557;SDS011;61829;53.286;10.434;2023-04-19T03:12:00;4.70;;;2.20;;
73557;SDS011;61829;53.286;10.434;2023-04-19T03:14:25;4.93;;;2.22;;
73557;SDS011;61829;53.286;10.434;2023-04-19T03:16:51;4.20;;;2.65;;
73557;SDS011;61829;53.286;10.434;2023-04-19T03:19:17;5.07;;;2.33;;
73557;SDS011;61829;53.286;10.434;2023-04-19T03:21:43;5.68;;;2.20;;
73557;SDS011;61829;53.286;10.434;2023-04-19T03:24:09;5.53;;;2.65;;
73557;SDS011;61829;53.286;10.434;2023-04-19T03:26:34;5.85;;;2.33;;
73557;SDS011;61829;53.286;10.434;2023-04-19T03:29:00;4.57;;;2.80;;
73557;SDS011;61829;53.286;10.434;2023-04-19T03:31:26;5.65;;;2.42;;
73557;SDS011;61829;53.286;10.434;2023-04-19T03:36:52;4.20;;;2.05;;
73557;SDS011;61829;53.286;10.434;2023-04-19T03:39:17;4.30;;;2.22;;
73557;SDS011;61829;53.286;10.434;2023-04-19T03:41:43;5.90;;;2.20;;
73557;SDS011;61829;53.286;10.434;2023-04-19T03:44:09;3.80;;;2.35;;
73557;SDS011;61829;53.286;10.434;2023-04-19T03:46:35;5.18;;;2.25;;
73557;SDS011;61829;53.286;10.434;2023-04-19T03:49:00;4.68;;;2.05;;
73557;SDS011;61829;53.286;10.434;2023-04-19T03:51:27;3.95;;;2.35;;
73557;SDS011;61829;53.286;10.434;2023-04-19T03:53:52;4.13;;;2.42;;
73557;SDS011;61829;53.286;10.434;2023-04-19T03:56:18;5.47;;;2.42;;
73557;SDS011;61829;53.286;10.434;2023-04-19T03:58:44;4.47;;;2.08;;
73557;SDS011;61829;53.286;10.434;2023-04-19T04:01:20;3.88;;;2.20;;
73557;SDS011;61829;53.286;10.434;2023-04-19T04:03:47;5.65;;;2.55;;
73557;SDS011;61829;53.286;10.434;2023-04-19T04:06:13;5.65;;;3.05;;
73557;SDS011;61829;53.286;10.434;2023-04-19T04:08:38;4.75;;;2.30;;
73557;SDS011;61829;53.286;10.434;2023-04-19T04:11:04;4.05;;;2.13;;
73557;SDS011;61829;53.286;10.434;2023-04-19T04:13:30;4.35;;;2.10;;
73557;SDS011;61829;53.286;10.434;2023-04-19T04:15:56;6.05;;;2.47;;
73557;SDS011;61829;53.286;10.434;2023-04-19T04:18:22;5.25;;;2.20;;
73557;SDS011;61829;53.286;10.434;2023-04-19T04:20:48;5.18;;;2.53;;
73557;SDS011;61829;53.286;10.434;2023-04-19T04:23:13;7.40;;;2.60;;
73557;SDS011;61829;53.286;10.434;2023-04-19T04:25:39;4.68;;;2.10;;
73557;SDS011;61829;53.286;10.434;2023-04-19T04:28:07;6.18;;;2.60;;
73557;SDS011;61829;53.286;10.434;2023-04-19T04:30:33;4.63;;;2.20;;
73557;SDS011;61829;53.286;10.434;2023-04-19T04:33:00;6.53;;;2.47;;
73557;SDS011;61829;53.286;10.434;2023-04-19T04:35:26;5.25;;;2.55;;
73557;SDS011;61829;53.286;10.434;2023-04-19T04:37:53;5.68;;;2.30;;
73557;SDS011;61829;53.286;10.434;2023-04-19T04:40:19;4.65;;;2.28;;
73557;SDS011;61829;53.286;10.434;2023-04-19T04:42:45;6.03;;;2.30;;
73557;SDS011;61829;53.286;10.434;2023-04-19T04:45:10;6.72;;;2.60;;
73557;SDS011;61829;53.286;10.434;2023-04-19T04:47:37;5.90;;;2.60;;
73557;SDS011;61829;53.286;10.434;2023-04-19T04:50:03;3.92;;;2.55;;
73557;SDS011;61829;53.286;10.434;2023-04-19T04:52:29;6.20;;;2.70;;
73557;SDS011;61829;53.286;10.434;2023-04-19T04:54:55;6.20;;;2.47;;
73557;SDS011;61829;53.286;10.434;2023-04-19T04:57:20;5.43;;;2.38;;
73557;SDS011;61829;53.286;10.434;2023-04-19T04:59:46;3.58;;;2.13;;
73557;SDS011;61829;53.286;10.434;2023-04-19T05:02:15;6.38;;;2.22;;
73557;SDS011;61829;53.286;10.434;2023-04-19T05:04:41;5.85;;;2.17;;
73557;SDS011;61829;53.286;10.434;2023-04-19T05:07:07;4.80;;;1.75;;
73557;SDS011;61829;53.286;10.434;2023-04-19T05:09:36;4.10;;;2.20;;
73557;SDS011;61829;53.286;10.434;2023-04-19T05:12:01;3.83;;;1.55;;
73557;SDS011;61829;53.286;10.434;2023-04-19T05:14:27;2.78;;;1.42;;
73557;SDS011;61829;53.286;10.434;2023-04-19T05:16:53;5.32;;;2.10;;
73557;SDS011;61829;53.286;10.434;2023-04-19T05:19:19;3.53;;;1.60;;
73557;SDS011;61829;53.286;10.434;2023-04-19T05:21:44;3.13;;;1.55;;
73557;SDS011;61829;53.286;10.434;2023-04-19T05:24:10;3.22;;;1.65;;
73557;SDS011;61829;53.286;10.434;2023-04-19T05:26:36;3.72;;;1.48;;
73557;SDS011;61829;53.286;10.434;2023-04-19T05:29:02;2.50;;;1.35;;
73557;SDS011;61829;53.286;10.434;2023-04-19T05:31:28;3.03;;;1.27;;
73557;SDS011;61829;53.286;10.434;2023-04-19T05:33:54;5.53;;;1.75;;
73557;SDS011;61829;53.286;10.434;2023-04-19T05:36:20;2.30;;;1.20;;
73557;SDS011;61829;53.286;10.434;2023-04-19T05:38:55;3.42;;;1.50;;
73557;SDS011;61829;53.286;10.434;2023-04-19T05:41:20;2.80;;;1.20;;
73557;SDS011;61829;53.286;10.434;2023-04-19T05:43:46;3.75;;;1.40;;
73557;SDS011;61829;53.286;10.434;2023-04-19T05:46:12;2.90;;;1.50;;
73557;SDS011;61829;53.286;10.434;2023-04-19T05:48:38;4.38;;;1.30;;
73557;SDS011;61829;53.286;10.434;2023-04-19T05:51:04;3.55;;;1.48;;
73557;SDS011;61829;53.286;10.434;2023-04-19T05:53:30;2.47;;;1.33;;
73557;SDS011;61829;53.286;10.434;2023-04-19T05:55:56;4.32;;;1.38;;
73557;SDS011;61829;53.286;10.434;2023-04-19T05:58:22;3.58;;;1.40;;
73557;SDS011;61829;53.286;10.434;2023-04-19T06:00:48;4.15;;;1.40;;
73557;SDS011;61829;53.286;10.434;2023-04-19T06:03:16;3.63;;;1.30;;
73557;SDS011;61829;53.286;10.434;2023-04-19T06:05:41;2.17;;;1.10;;
73557;SDS011;61829;53.286;10.434;2023-04-19T06:08:07;3.65;;;1.13;;
73557;SDS011;61829;53.286;10.434;2023-04-19T06:10:34;1.67;;;0.98;;
73557;SDS011;61829;53.286;10.434;2023-04-19T06:13:01;3.88;;;1.23;;
73557;SDS011;61829;53.286;10.434;2023-04-19T06:15:28;2.08;;;1.10;;
73557;SDS011;61829;53.286;10.434;2023-04-19T06:17:55;1.48;;;1.10;;
73557;SDS011;61829;53.286;10.434;2023-04-19T06:20:20;1.83;;;1.10;;
73557;SDS011;61829;53.286;10.434;2023-04-19T06:22:47;2.30;;;1.00;;
73557;SDS011;61829;53.286;10.434;2023-04-19T06:25:13;2.15;;;1.10;;
73557;SDS011;61829;53.286;10.434;2023-04-19T06:27:39;2.33;;;0.95;;
73557;SDS011;61829;53.286;10.434;2023-04-19T06:30:05;2.20;;;1.10;;
73557;SDS011;61829;53.286;10.434;2023-04-19T06:32:32;1.67;;;0.90;;
73557;SDS011;61829;53.286;10.434;2023-04-19T06:34:58;0.85;;;0.80;;
73557;SDS011;61829;53.286;10.434;2023-04-19T06:37:23;3.13;;;1.00;;
73557;SDS011;61829;53.286;10.434;2023-04-19T06:39:49;3.25;;;1.30;;
73557;SDS011;61829;53.286;10.434;2023-04-19T06:42:15;1.60;;;1.00;;
73557;SDS011;61829;53.286;10.434;2023-04-19T06:44:44;2.85;;;1.00;;
73557;SDS011;61829;53.286;10.434;2023-04-19T06:47:09;2.53;;;0.90;;
73557;SDS011;61829;53.286;10.434;2023-04-19T06:49:35;1.02;;;0.82;;
73557;SDS011;61829;53.286;10.434;2023-04-19T06:52:01;5.13;;;1.00;;
73557;SDS011;61829;53.286;10.434;2023-04-19T06:54:27;2.75;;;0.80;;
73557;SDS011;61829;53.286;10.434;2023-04-19T06:56:53;1.50;;;0.93;;
73557;SDS011;61829;53.286;10.434;2023-04-19T06:59:19;1.48;;;0.90;;
73557;SDS011;61829;53.286;10.434;2023-04-19T07:01:45;1.80;;;1.00;;
73557;SDS011;61829;53.286;10.434;2023-04-19T07:04:12;2.25;;;1.00;;
73557;SDS011;61829;53.286;10.434;2023-04-19T07:06:38;1.23;;;0.85;;
73557;SDS011;61829;53.286;10.434;2023-04-19T07:09:05;1.85;;;0.90;;
73557;SDS011;61829;53.286;10.434;2023-04-19T07:11:32;2.00;;;1.08;;
73557;SDS011;61829;53.286;10.434;2023-04-19T07:13:58;2.83;;;0.90;;
73557;SDS011;61829;53.286;10.434;2023-04-19T07:16:25;2.40;;;0.80;;
73557;SDS011;61829;53.286;10.434;2023-04-19T07:18:51;2.28;;;0.85;;
73557;SDS011;61829;53.286;10.434;2023-04-19T07:21:18;2.63;;;0.85;;
73557;SDS011;61829;53.286;10.434;2023-04-19T07:23:44;1.60;;;0.82;;
73557;SDS011;61829;53.286;10.434;2023-04-19T07:26:10;1.88;;;0.95;;
73557;SDS011;61829;53.286;10.434;2023-04-19T07:28:35;1.45;;;1.02;;
73557;SDS011;61829;53.286;10.434;2023-04-19T07:31:02;1.85;;;1.00;;
73557;SDS011;61829;53.286;10.434;2023-04-19T07:33:28;2.00;;;1.02;;
73557;SDS011;61829;53.286;10.434;2023-04-19T07:35:54;4.72;;;1.00;;
73557;SDS011;61829;53.286;10.434;2023-04-19T07:38:21;3.72;;;1.00;;
73557;SDS011;61829;53.286;10.434;2023-04-19T07:40:47;2.08;;;1.00;;
73557;SDS011;61829;53.286;10.434;2023-04-19T07:43:12;1.30;;;0.90;;
73557;SDS011;61829;53.286;10.434;2023-04-19T07:45:39;2.47;;;1.00;;
73557;SDS011;61829;53.286;10.434;2023-04-19T07:48:04;2.03;;;0.95;;
73557;SDS011;61829;53.286;10.434;2023-04-19T07:50:30;2.08;;;0.85;;
73557;SDS011;61829;53.286;10.434;2023-04-19T07:52:56;1.40;;;1.00;;
73557;SDS011;61829;53.286;10.434;2023-04-19T07:55:22;1.70;;;1.10;;
73557;SDS011;61829;53.286;10.434;2023-04-19T07:57:48;1.02;;;0.80;;
73557;SDS011;61829;53.286;10.434;2023-04-19T08:00:15;2.75;;;1.10;;
73557;SDS011;61829;53.286;10.434;2023-04-19T08:02:45;2.38;;;1.10;;
73557;SDS011;61829;53.286;10.434;2023-04-19T08:05:12;3.13;;;1.00;;
73557;SDS011;61829;53.286;10.434;2023-04-19T08:07:40;3.13;;;1.20;;
73557;SDS011;61829;53.286;10.434;2023-04-19T08:12:34;3.00;;;1.30;;
73557;SDS011;61829;53.286;10.434;2023-04-19T08:15:00;1.92;;;1.10;;
73557;SDS011;61829;53.286;10.434;2023-04-19T08:17:26;3.78;;;1.25;;
73557;SDS011;61829;53.286;10.434;2023-04-19T08:19:53;2.70;;;1.42;;
73557;SDS011;61829;53.286;10.434;2023-04-19T08:22:19;1.27;;;0.93;;
73557;SDS011;61829;53.286;10.434;2023-04-19T08:24:48;1.45;;;0.85;;
73557;SDS011;61829;53.286;10.434;2023-04-19T08:27:14;2.35;;;1.05;;
73557;SDS011;61829;53.286;10.434;2023-04-19T08:29:40;2.30;;;1.15;;
73557;SDS011;61829;53.286;10.434;2023-04-19T08:32:05;3.40;;;1.10;;
73557;SDS011;61829;53.286;10.434;2023-04-19T08:34:35;3.88;;;1.20;;
73557;SDS011;61829;53.286;10.434;2023-04-19T08:37:01;1.85;;;1.05;;
73557;SDS011;61829;53.286;10.434;2023-04-19T08:39:32;3.08;;;1.17;;
73557;SDS011;61829;53.286;10.434;2023-04-19T08:42:05;1.67;;;1.25;;
73557;SDS011;61829;53.286;10.434;2023-04-19T08:44:35;3.45;;;1.27;;
73557;SDS011;61829;53.286;10.434;2023-04-19T08:47:04;3.30;;;1.20;;
73557;SDS011;61829;53.286;10.434;2023-04-19T08:49:34;4.28;;;1.30;;
73557;SDS011;61829;53.286;10.434;2023-04-19T08:52:02;3.58;;;1.30;;
73557;SDS011;61829;53.286;10.434;2023-04-19T08:54:29;2.20;;;1.20;;
73557;SDS011;61829;53.286;10.434;2023-04-19T08:56:58;3.17;;;1.15;;
73557;SDS011;61829;53.286;10.434;2023-04-19T08:59:27;2.50;;;1.17;;
73557;SDS011;61829;53.286;10.434;2023-04-19T09:01:59;4.57;;;1.23;;
73557;SDS011;61829;53.286;10.434;2023-04-19T09:04:25;1.77;;;1.10;;
73557;SDS011;61829;53.286;10.434;2023-04-19T09:06:51;4.72;;;1.75;;
73557;SDS011;61829;53.286;10.434;2023-04-19T09:11:54;2.13;;;1.10;;
73557;SDS011;61829;53.286;10.434;2023-04-19T09:14:20;2.00;;;1.30;;
73557;SDS011;61829;53.286;10.434;2023-04-19T09:16:47;3.85;;;1.40;;
73557;SDS011;61829;53.286;10.434;2023-04-19T09:19:13;4.60;;;1.70;;
73557;SDS011;61829;53.286;10.434;2023-04-19T09:21:41;5.15;;;1.40;;
73557;SDS011;61829;53.286;10.434;2023-04-19T09:24:09;3.65;;;1.15;;
73557;SDS011;61829;53.286;10.434;2023-04-19T09:26:35;3.10;;;1.20;;
73557;SDS011;61829;53.286;10.434;2023-04-19T09:29:02;2.05;;;1.20;;
73557;SDS011;61829;53.286;10.434;2023-04-19T09:31:30;3.22;;;1.42;;
73557;SDS011;61829;53.286;10.434;2023-04-19T09:34:10;3.03;;;1.20;;
73557;SDS011;61829;53.286;10.434;2023-04-19T09:36:38;5.78;;;1.63;;
73557;SDS011;61829;53.286;10.434;2023-04-19T09:39:04;6.10;;;1.48;;
73557;SDS011;61829;53.286;10.434;2023-04-19T09:41:30;4.25;;;1.38;;
73557;SDS011;61829;53.286;10.434;2023-04-19T09:44:08;3.05;;;1.45;;
73557;SDS011;61829;53.286;10.434;2023-04-19T09:46:36;2.30;;;1.27;;
73557;SDS011;61829;53.286;10.434;2023-04-19T09:51:48;4.35;;;1.33;;
73557;SDS011;61829;53.286;10.434;2023-04-19T09:54:19;2.75;;;1.10;;
73557;SDS011;61829;53.286;10.434;2023-04-19T09:56:47;4.82;;;1.65;;
73557;SDS011;61829;53.286;10.434;2023-04-19T09:59:13;4.82;;;1.40;;
73557;SDS011;61829;53.286;10.434;2023-04-19T10:01:43;9.05;;;1.88;;
73557;SDS011;61829;53.286;10.434;2023-04-19T10:04:11;2.58;;;1.40;;
73557;SDS011;61829;53.286;10.434;2023-04-19T10:06:39;4.10;;;1.60;;
73557;SDS011;61829;53.286;10.434;2023-04-19T10:09:08;2.83;;;1.50;;
73557;SDS011;61829;53.286;10.434;2023-04-19T10:11:35;7.03;;;1.25;;
73557;SDS011;61829;53.286;10.434;2023-04-19T10:14:08;2.97;;;1.40;;
73557;SDS011;61829;53.286;10.434;2023-04-19T10:16:36;3.90;;;1.40;;
73557;SDS011;61829;53.286;10.434;2023-04-19T10:19:04;2.47;;;1.38;;
73557;SDS011;61829;53.286;10.434;2023-04-19T10:21:33;2.55;;;1.30;;
73557;SDS011;61829;53.286;10.434;2023-04-19T10:24:00;2.55;;;1.40;;
73557;SDS011;61829;53.286;10.434;2023-04-19T10:26:26;4.05;;;1.55;;
73557;SDS011;61829;53.286;10.434;2023-04-19T10:28:54;2.55;;;1.50;;
73557;SDS011;61829;53.286;10.434;2023-04-19T10:31:24;1.92;;;1.30;;
73557;SDS011;61829;53.286;10.434;2023-04-19T10:33:54;3.22;;;1.77;;
73557;SDS011;61829;53.286;10.434;2023-04-19T10:36:21;4.45;;;1.55;;
73557;SDS011;61829;53.286;10.434;2023-04-19T10:38:50;3.60;;;1.50;;
73557;SDS011;61829;53.286;10.434;2023-04-19T10:41:17;6.00;;;1.83;;
73557;SDS011;61829;53.286;10.434;2023-04-19T10:43:44;3.97;;;1.50;;
73557;SDS011;61829;53.286;10.434;2023-04-19T10:51:19;3.65;;;1.58;;
73557;SDS011;61829;53.286;10.434;2023-04-19T10:53:50;2.50;;;1.67;;
73557;SDS011;61829;53.286;10.434;2023-04-19T10:56:17;6.70;;;1.83;;
73557;SDS011;61829;53.286;10.434;2023-04-19T10:59:16;2.58;;;1.45;;
73557;SDS011;61829;53.286;10.434;2023-04-19T11:01:53;3.38;;;1.70;;
73557;SDS011;61829;53.286;10.434;2023-04-19T11:06:56;4.47;;;1.90;;
73557;SDS011;61829;53.286;10.434;2023-04-19T11:14:33;3.20;;;1.40;;
73557;SDS011;61829;53.286;10.434;2023-04-19T11:17:02;5.13;;;1.85;;
73557;SDS011;61829;53.286;10.434;2023-04-19T11:19:38;2.65;;;1.50;;
73557;SDS011;61829;53.286;10.434;2023-04-19T11:22:03;6.72;;;1.50;;
73557;SDS011;61829;53.286;10.434;2023-04-19T11:24:29;3.45;;;1.10;;
73557;SDS011;61829;53.286;10.434;2023-04-19T11:26:55;3.58;;;1.42;;
73557;SDS011;61829;53.286;10.434;2023-04-19T11:31:48;4.03;;;1.60;;
73557;SDS011;61829;53.286;10.434;2023-04-19T11:34:14;2.63;;;1.48;;
73557;SDS011;61829;53.286;10.434;2023-04-19T11:36:46;4.03;;;1.40;;
73557;SDS011;61829;53.286;10.434;2023-04-19T11:39:13;2.13;;;1.30;;
73557;SDS011;61829;53.286;10.434;2023-04-19T11:41:39;2.42;;;1.30;;
73557;SDS011;61829;53.286;10.434;2023-04-19T11:44:15;4.38;;;1.40;;
73557;SDS011;61829;53.286;10.434;2023-04-19T11:46:42;2.13;;;1.20;;
73557;SDS011;61829;53.286;10.434;2023-04-19T11:49:31;2.75;;;1.63;;
73557;SDS011;61829;53.286;10.434;2023-04-19T11:51:58;4.35;;;1.67;;
73557;SDS011;61829;53.286;10.434;2023-04-19T11:54:25;4.43;;;1.55;;
73557;SDS011;61829;53.286;10.434;2023-04-19T11:56:58;3.15;;;1.45;;
73557;SDS011;61829;53.286;10.434;2023-04-19T11:59:31;2.80;;;1.40;;
73557;SDS011;61829;53.286;10.434;2023-04-19T12:02:05;3.15;;;1.35;;
73557;SDS011;61829;53.286;10.434;2023-04-19T12:04:36;4.40;;;1.92;;
73557;SDS011;61829;53.286;10.434;2023-04-19T12:07:03;3.13;;;1.70;;
73557;SDS011;61829;53.286;10.434;2023-04-19T12:09:33;8.38;;;2.78;;
73557;SDS011;61829;53.286;10.434;2023-04-19T12:12:01;4.40;;;1.90;;
73557;SDS011;61829;53.286;10.434;2023-04-19T12:14:28;5.35;;;2.15;;
73557;SDS011;61829;53.286;10.434;2023-04-19T12:17:10;5.47;;;1.52;;
73557;SDS011;61829;53.286;10.434;2023-04-19T12:19:43;5.35;;;1.60;;
73557;SDS011;61829;53.286;10.434;2023-04-19T12:22:11;3.78;;;1.70;;
73557;SDS011;61829;53.286;10.434;2023-04-19T12:24:42;4.88;;;1.65;;
73557;SDS011;61829;53.286;10.434;2023-04-19T12:27:08;3.63;;;1.65;;
73557;SDS011;61829;53.286;10.434;2023-04-19T12:29:34;2.38;;;1.33;;
73557;SDS011;61829;53.286;10.434;2023-04-19T12:32:02;4.72;;;1.52;;
73557;SDS011;61829;53.286;10.434;2023-04-19T12:34:28;3.33;;;1.63;;
73557;SDS011;61829;53.286;10.434;2023-04-19T12:36:54;5.90;;;1.80;;
73557;SDS011;61829;53.286;10.434;2023-04-19T12:39:21;2.42;;;1.55;;
73557;SDS011;61829;53.286;10.434;2023-04-19T12:41:48;5.00;;;1.80;;
73557;SDS011;61829;53.286;10.434;2023-04-19T12:44:14;3.83;;;1.67;;
73557;SDS011;61829;53.286;10.434;2023-04-19T12:46:40;2.92;;;1.35;;
73557;SDS011;61829;53.286;10.434;2023-04-19T12:49:06;4.05;;;1.85;;
73557;SDS011;61829;53.286;10.434;2023-04-19T12:51:32;4.35;;;1.50;;
73557;SDS011;61829;53.286;10.434;2023-04-19T12:53:58;3.55;;;1.50;;
73557;SDS011;61829;53.286;10.434;2023-04-19T12:56:24;3.45;;;1.73;;
73557;SDS011;61829;53.286;10.434;2023-04-19T12:58:50;3.55;;;1.73;;
73557;SDS011;61829;53.286;10.434;2023-04-19T13:01:17;4.32;;;1.77;;
73557;SDS011;61829;53.286;10.434;2023-04-19T13:03:44;5.20;;;2.38;;
73557;SDS011;61829;53.286;10.434;2023-04-19T13:06:10;4.82;;;1.58;;
73557;SDS011;61829;53.286;10.434;2023-04-19T13:08:39;5.05;;;1.50;;
73557;SDS011;61829;53.286;10.434;2023-04-19T13:11:05;2.78;;;1.52;;
73557;SDS011;61829;53.286;10.434;2023-04-19T13:13:32;3.75;;;1.67;;
73557;SDS011;61829;53.286;10.434;2023-04-19T13:18:24;4.22;;;1.90;;
73557;SDS011;61829;53.286;10.434;2023-04-19T13:20:50;5.18;;;1.92;;
73557;SDS011;61829;53.286;10.434;2023-04-19T13:23:18;4.03;;;2.03;;
73557;SDS011;61829;53.286;10.434;2023-04-19T13:25:44;7.53;;;2.15;;
73557;SDS011;61829;53.286;10.434;2023-04-19T13:28:10;4.70;;;1.55;;
73557;SDS011;61829;53.286;10.434;2023-04-19T13:30:35;3.90;;;1.77;;
73557;SDS011;61829;53.286;10.434;2023-04-19T13:33:01;11.05;;;2.90;;
73557;SDS011;61829;53.286;10.434;2023-04-19T13:35:27;11.30;;;3.17;;
73557;SDS011;61829;53.286;10.434;2023-04-19T13:37:53;10.15;;;3.13;;
73557;SDS011;61829;53.286;10.434;2023-04-19T13:40:20;5.55;;;2.05;;
73557;SDS011;61829;53.286;10.434;2023-04-19T13:42:46;11.43;;;3.30;;
73557;SDS011;61829;53.286;10.434;2023-04-19T13:45:12;5.55;;;1.88;;
73557;SDS011;61829;53.286;10.434;2023-04-19T13:47:38;4.43;;;2.03;;
73557;SDS011;61829;53.286;10.434;2023-04-19T13:50:03;4.10;;;1.75;;
73557;SDS011;61829;53.286;10.434;2023-04-19T13:52:30;5.57;;;1.80;;
73557;SDS011;61829;53.286;10.434;2023-04-19T13:54:55;15.82;;;5.03;;
73557;SDS011;61829;53.286;10.434;2023-04-19T13:57:21;6.50;;;2.35;;
73557;SDS011;61829;53.286;10.434;2023-04-19T13:59:47;6.38;;;1.80;;
73557;SDS011;61829;53.286;10.434;2023-04-19T14:02:13;3.47;;;1.67;;
73557;SDS011;61829;53.286;10.434;2023-04-19T14:04:39;9.13;;;2.03;;
73557;SDS011;61829;53.286;10.434;2023-04-19T14:07:05;2.70;;;1.60;;
73557;SDS011;61829;53.286;10.434;2023-04-19T14:09:31;3.28;;;1.73;;
73557;SDS011;61829;53.286;10.434;2023-04-19T14:11:57;5.75;;;2.08;;
73557;SDS011;61829;53.286;10.434;2023-04-19T14:14:23;7.35;;;3.25;;
73557;SDS011;61829;53.286;10.434;2023-04-19T14:16:48;8.70;;;2.20;;
73557;SDS011;61829;53.286;10.434;2023-04-19T14:19:14;3.72;;;1.88;;
73557;SDS011;61829;53.286;10.434;2023-04-19T14:21:40;14.57;;;3.67;;
73557;SDS011;61829;53.286;10.434;2023-04-19T14:24:06;13.45;;;2.92;;
73557;SDS011;61829;53.286;10.434;2023-04-19T14:26:32;4.95;;;1.65;;
73557;SDS011;61829;53.286;10.434;2023-04-19T14:28:58;5.63;;;1.70;;
73557;SDS011;61829;53.286;10.434;2023-04-19T14:31:23;4.82;;;2.38;;
73557;SDS011;61829;53.286;10.434;2023-04-19T14:33:49;6.22;;;2.00;;
73557;SDS011;61829;53.286;10.434;2023-04-19T14:36:15;7.18;;;3.15;;
73557;SDS011;61829;53.286;10.434;2023-04-19T14:38:42;3.33;;;1.80;;
73557;SDS011;61829;53.286;10.434;2023-04-19T14:41:08;11.50;;;2.75;;
73557;SDS011;61829;53.286;10.434;2023-04-19T14:43:34;4.57;;;1.35;;
73557;SDS011;61829;53.286;10.434;2023-04-19T14:46:00;9.15;;;2.45;;
73557;SDS011;61829;53.286;10.434;2023-04-19T14:48:26;5.45;;;1.98;;
73557;SDS011;61829;53.286;10.434;2023-04-19T14:50:52;3.17;;;1.75;;
73557;SDS011;61829;53.286;10.434;2023-04-19T14:53:17;8.20;;;2.35;;
73557;SDS011;61829;53.286;10.434;2023-04-19T14:55:43;4.40;;;2.15;;
73557;SDS011;61829;53.286;10.434;2023-04-19T14:58:09;5.28;;;1.63;;
73557;SDS011;61829;53.286;10.434;2023-04-19T15:00:35;3.75;;;1.70;;
73557;SDS011;61829;53.286;10.434;2023-04-19T15:03:00;4.80;;;1.60;;
73557;SDS011;61829;53.286;10.434;2023-04-19T15:05:26;7.57;;;1.98;;
73557;SDS011;61829;53.286;10.434;2023-04-19T15:07:52;6.45;;;1.98;;
73557;SDS011;61829;53.286;10.434;2023-04-19T15:10:21;3.58;;;1.73;;